createdAt,value
2019-06-07T00:01:29.871Z,60.10
2019-06-07T00:05:32.768Z,60.00
2019-06-07T00:09:35.657Z,60.20
2019-06-07T00:13:38.583Z,59.30
2019-06-07T00:17:41.526Z,59.30
2019-06-07T00:25:52.259Z,59.10
2019-06-07T00:29:55.488Z,58.00
2019-06-07T00:33:58.364Z,58.30
2019-06-07T00:38:01.314Z,59.10
2019-06-07T00:42:07.036Z,58.70
2019-06-07T00:46:14.093Z,59.20
2019-06-07T00:50:16.381Z,60.00
2019-06-07T00:54:21.554Z,60.20
2019-06-07T00:58:27.630Z,60.50
2019-06-07T01:02:31.395Z,60.40
2019-06-07T01:06:33.603Z,60.60
2019-06-07T01:10:52.890Z,60.30
2019-06-07T01:14:41.275Z,60.50
2019-06-07T01:18:46.856Z,60.00
2019-06-07T01:22:54.954Z,59.90
2019-06-07T01:27:00.849Z,60.00
2019-06-07T01:31:03.767Z,59.50
2019-06-07T01:35:06.923Z,60.50
2019-06-07T01:39:09.805Z,61.00
2019-06-07T01:43:12.647Z,61.00
2019-06-07T01:47:21.181Z,61.00
2019-06-07T01:51:27.897Z,61.10
2019-06-07T01:55:32.782Z,61.10
2019-06-07T01:59:35.527Z,60.50
2019-06-07T02:03:38.425Z,61.10
2019-06-07T02:07:44.093Z,61.20
2019-06-07T02:11:48.129Z,61.20
2019-06-07T02:15:51.009Z,60.00
2019-06-07T02:19:54.008Z,60.80
2019-06-07T02:23:56.851Z,61.10
2019-06-07T02:28:25.976Z,60.80
2019-06-07T02:32:04.446Z,60.60
2019-06-07T02:36:07.360Z,61.00
2019-06-07T02:40:10.922Z,61.20
2019-06-07T02:44:13.879Z,61.80
2019-06-07T02:48:16.892Z,62.00
2019-06-07T02:52:19.757Z,61.60
2019-06-07T02:56:54.174Z,62.70
2019-06-07T03:01:06.903Z,63.30
2019-06-07T03:05:06.709Z,64.70
2019-06-07T03:09:09.606Z,64.10
2019-06-07T03:13:16.639Z,64.20
2019-06-07T03:17:45.586Z,65.60
2019-06-07T03:21:50.905Z,64.70
2019-06-07T03:25:54.254Z,65.30
2019-06-07T03:30:00.021Z,65.30
2019-06-07T03:34:02.865Z,67.10
2019-06-07T03:38:05.752Z,66.30
2019-06-07T03:42:11.450Z,66.50
2019-06-07T03:46:14.319Z,66.20
2019-06-07T03:50:17.319Z,65.30
2019-06-07T03:54:20.559Z,64.30
2019-06-07T03:58:34.714Z,64.30
2019-06-07T04:02:30.219Z,63.30
2019-06-07T04:06:36.153Z,63.00
2019-06-07T04:10:55.918Z,63.80
2019-06-07T04:14:45.551Z,63.50
2019-06-07T04:18:48.475Z,63.70
2019-06-07T04:22:51.372Z,64.20
2019-06-07T04:26:54.262Z,64.30
2019-06-07T04:30:57.177Z,64.40
2019-06-07T04:35:03.735Z,64.50
2019-06-07T04:39:07.691Z,63.90
2019-06-07T04:43:10.888Z,64.40
2019-06-07T04:47:15.544Z,63.30
2019-06-07T04:51:20.414Z,63.90
2019-06-07T04:55:23.474Z,63.50
2019-06-07T05:00:04.309Z,63.20
2019-06-07T05:03:35.012Z,63.70
2019-06-07T05:07:40.871Z,63.70
2019-06-07T05:11:45.070Z,63.50
2019-06-07T05:15:48.152Z,62.20
2019-06-07T05:19:51.028Z,61.90
2019-06-07T05:24:07.630Z,61.70
2019-06-07T05:28:10.596Z,61.80
2019-06-07T05:32:14.241Z,61.50
2019-06-07T05:36:17.095Z,61.00
2019-06-07T05:40:32.938Z,60.70
2019-06-07T05:44:36.520Z,56.70
2019-06-07T05:48:41.681Z,58.00
2019-06-07T05:52:47.398Z,56.40
2019-06-07T05:56:49.146Z,52.00
2019-06-07T06:00:52.059Z,51.50
2019-06-07T06:04:54.952Z,50.50
2019-06-07T06:09:13.432Z,51.40
2019-06-07T06:13:05.489Z,52.50
2019-06-07T06:17:09.390Z,52.30
2019-06-07T06:21:19.133Z,52.10
2019-06-07T06:25:31.590Z,51.20
2019-06-07T06:29:24.935Z,50.60
2019-06-07T06:33:34.391Z,48.30
2019-06-07T06:37:38.037Z,48.80
2019-06-07T06:41:50.632Z,49.60
2019-06-07T06:45:49.687Z,49.10
2019-06-07T06:49:54.127Z,49.20
2019-06-07T06:53:54.851Z,49.20
2019-06-07T06:57:58.089Z,49.30
2019-06-07T07:02:00.970Z,49.30
2019-06-07T07:06:24.764Z,48.60
2019-06-07T07:10:09.831Z,45.10
2019-06-07T07:14:13.090Z,46.10
2019-06-07T07:18:19.089Z,48.00
2019-06-07T07:22:21.991Z,46.90
2019-06-07T07:26:24.926Z,47.60
2019-06-07T07:30:54.878Z,46.90
2019-06-07T07:34:58.094Z,45.50
2019-06-07T07:39:04.131Z,44.70
2019-06-07T07:43:01.273Z,41.80
2019-06-07T07:47:04.274Z,42.60
2019-06-07T07:51:07.158Z,42.10
2019-06-07T07:55:10.105Z,42.30
2019-06-07T07:59:16.004Z,40.30
2019-06-07T08:03:18.920Z,40.90
2019-06-07T08:07:28.287Z,39.70
2019-06-07T08:11:31.274Z,39.70
2019-06-07T08:15:36.911Z,38.20
2019-06-07T08:19:47.611Z,40.40
2019-06-07T08:23:55.370Z,38.80
2019-06-07T08:27:57.081Z,36.90
2019-06-07T08:32:00.953Z,35.90
2019-06-07T08:36:15.087Z,36.40
2019-06-07T08:40:09.554Z,35.10
2019-06-07T08:44:23.368Z,36.30
2019-06-07T08:48:27.782Z,35.40
2019-06-07T08:52:26.693Z,36.80
2019-06-07T08:56:29.638Z,38.00
2019-06-07T09:00:48.237Z,36.20
2019-06-07T09:04:37.401Z,37.10
2019-06-07T09:08:40.290Z,36.80
2019-06-07T09:12:45.228Z,35.70
2019-06-07T09:16:47.917Z,34.40
2019-06-07T09:20:51.221Z,34.40
2019-06-07T09:25:00.230Z,33.60
2019-06-07T09:29:01.360Z,34.20
2019-06-07T09:33:06.926Z,32.50
2019-06-07T09:38:02.761Z,30.90
2019-06-07T09:41:17.346Z,30.80
2019-06-07T09:45:23.347Z,30.00
2019-06-07T09:49:33.470Z,29.60
2019-06-07T09:53:36.762Z,29.00
2019-06-07T09:57:39.691Z,30.10
2019-06-07T10:01:42.595Z,30.80
2019-06-07T10:05:48.494Z,29.80
2019-06-07T10:13:56.487Z,29.90
2019-06-07T10:18:02.790Z,27.80
2019-06-07T10:22:06.076Z,29.40
2019-06-07T10:26:10.399Z,29.10
2019-06-07T10:30:16.111Z,29.90
2019-06-07T10:34:25.140Z,28.40
2019-06-07T10:38:28.147Z,27.90
2019-06-07T10:42:31.021Z,28.50
2019-06-07T10:46:33.911Z,27.90
2019-06-07T10:50:39.643Z,27.70
2019-06-07T10:54:42.519Z,27.90
2019-06-07T10:58:45.413Z,24.60
2019-06-07T11:02:48.320Z,26.10
2019-06-07T11:06:54.244Z,25.60
2019-06-07T11:10:59.244Z,27.60
2019-06-07T11:15:06.668Z,27.90
2019-06-07T11:19:15.739Z,28.20
2019-06-07T11:23:18.570Z,28.00
2019-06-07T11:27:21.615Z,25.30
2019-06-07T11:31:24.545Z,24.50
2019-06-07T11:35:33.521Z,24.30
2019-06-07T11:39:37.719Z,23.00
2019-06-07T11:43:40.645Z,21.60
2019-06-07T11:47:43.539Z,19.50
2019-06-07T11:51:46.419Z,22.70
2019-06-07T11:55:49.326Z,24.00
2019-06-07T11:59:53.323Z,25.00
2019-06-07T12:03:58.880Z,23.60
2019-06-07T12:08:01.885Z,25.30
2019-06-07T12:12:04.873Z,24.50
2019-06-07T12:16:08.982Z,22.30
2019-06-07T12:20:14.524Z,23.30
2019-06-07T12:24:19.311Z,23.00
2019-06-07T12:28:21.850Z,22.40
2019-06-07T12:32:30.913Z,21.70
2019-06-07T12:36:33.822Z,21.90
2019-06-07T12:40:37.224Z,22.80
2019-06-07T12:44:40.152Z,22.60
2019-06-07T12:48:43.066Z,23.40
2019-06-07T12:52:45.939Z,23.30
2019-06-07T12:56:52.494Z,24.90
2019-06-07T13:00:59.489Z,24.30
2019-06-07T13:05:04.546Z,22.10
2019-06-07T13:09:05.937Z,22.30
2019-06-07T13:13:08.850Z,23.70
2019-06-07T13:17:11.787Z,24.00
2019-06-07T13:21:16.053Z,23.60
2019-06-07T13:25:25.845Z,22.10
2019-06-07T13:29:30.063Z,21.10
2019-06-07T13:33:38.221Z,20.60
2019-06-07T13:37:37.504Z,20.90
2019-06-07T13:41:43.137Z,18.50
2019-06-07T13:45:45.295Z,19.40
2019-06-07T13:49:48.225Z,19.00
2019-06-07T13:53:51.125Z,18.80
2019-06-07T13:57:54.016Z,17.80
2019-06-07T14:02:03.026Z,15.00
2019-06-07T14:06:05.916Z,14.10
2019-06-07T14:10:12.402Z,13.90
2019-06-07T14:14:15.292Z,13.30
2019-06-07T14:18:22.507Z,13.80
2019-06-07T14:22:26.865Z,12.70
2019-06-07T14:26:29.926Z,14.60
2019-06-07T14:30:32.839Z,14.10
2019-06-07T14:34:36.839Z,17.10
2019-06-07T14:38:39.763Z,18.60
2019-06-07T14:42:42.669Z,18.90
2019-06-07T14:46:45.544Z,20.10
2019-06-07T14:50:48.456Z,21.00
2019-06-07T14:54:51.355Z,20.60
2019-06-07T14:58:54.246Z,20.80
2019-06-07T15:02:57.168Z,21.30
2019-06-07T15:07:00.067Z,21.60
2019-06-07T15:11:12.007Z,21.70
2019-06-07T15:15:15.027Z,22.70
2019-06-07T15:19:23.963Z,22.90
2019-06-07T15:23:27.017Z,23.30
2019-06-07T15:27:31.228Z,23.20
2019-06-07T15:31:34.603Z,23.10
2019-06-07T15:35:39.158Z,23.10
2019-06-07T15:39:42.208Z,23.10
2019-06-07T15:43:45.307Z,22.70
2019-06-07T15:47:48.188Z,22.60
2019-06-07T15:51:51.057Z,23.10
2019-06-07T15:55:54.411Z,23.50
2019-06-07T15:59:58.470Z,23.40
2019-06-07T16:04:01.450Z,24.30
2019-06-07T16:08:07.253Z,24.30
2019-06-07T16:12:10.143Z,24.10
2019-06-07T16:16:16.236Z,24.90
2019-06-07T16:20:25.103Z,24.40
2019-06-07T16:24:28.021Z,25.10
2019-06-07T16:28:30.941Z,24.90
2019-06-07T16:32:34.973Z,25.20
2019-06-07T16:36:38.360Z,25.30
2019-06-07T16:40:42.431Z,25.20
2019-06-07T16:44:48.958Z,25.80
2019-06-07T16:48:51.931Z,26.90
2019-06-07T16:52:54.826Z,26.50
2019-06-07T16:56:57.790Z,26.70
2019-06-07T17:01:00.697Z,26.60
2019-06-07T17:05:10.111Z,27.00
2019-06-07T17:09:13.042Z,26.70
2019-06-07T17:13:33.061Z,26.60
2019-06-07T17:17:26.535Z,27.10
2019-06-07T17:21:29.401Z,27.20
2019-06-07T17:25:32.471Z,27.10
2019-06-07T17:29:35.311Z,27.50
2019-06-07T17:33:41.946Z,27.30
2019-06-07T17:37:46.351Z,27.80
2019-06-07T17:41:59.923Z,28.00
2019-06-07T17:45:54.569Z,28.30
2019-06-07T17:49:57.461Z,28.70
2019-06-07T17:54:00.360Z,29.20
2019-06-07T17:58:03.314Z,29.00
2019-06-07T18:02:14.843Z,29.30
2019-06-07T18:06:14.806Z,29.70
2019-06-07T18:10:32.989Z,29.80
2019-06-07T18:14:39.163Z,29.90
2019-06-07T18:18:42.067Z,29.70
2019-06-07T18:22:45.109Z,30.00
2019-06-07T18:26:48.449Z,30.10
2019-06-07T18:30:51.364Z,30.00
2019-06-07T18:34:55.078Z,30.40
2019-06-07T18:39:00.996Z,31.00
2019-06-07T18:43:03.968Z,31.50
2019-06-07T18:47:06.904Z,32.20
2019-06-07T18:51:09.876Z,34.20
2019-06-07T18:55:16.144Z,35.70
2019-06-07T18:59:19.064Z,36.60
2019-06-07T19:03:22.408Z,38.00
2019-06-07T19:07:25.720Z,39.00
2019-06-07T19:11:28.658Z,39.90
2019-06-07T19:15:33.492Z,40.90
2019-06-07T19:19:36.399Z,40.90
2019-06-07T19:23:39.720Z,41.20
2019-06-07T19:27:42.596Z,41.80
2019-06-07T19:31:45.542Z,41.90
2019-06-07T19:35:48.460Z,42.70
2019-06-07T19:39:51.730Z,42.80
2019-06-07T19:43:54.742Z,44.00
2019-06-07T19:47:58.686Z,44.20
2019-06-07T19:52:01.678Z,44.20
2019-06-07T19:56:04.948Z,44.80
2019-06-07T20:00:14.143Z,45.10
2019-06-07T20:04:12.960Z,44.60
2019-06-07T20:08:15.914Z,45.10
2019-06-07T20:12:19.659Z,45.70
2019-06-07T20:16:22.580Z,46.30
2019-06-07T20:20:30.128Z,46.90
2019-06-07T20:24:33.118Z,47.10
2019-06-07T20:28:39.160Z,47.70
2019-06-07T20:32:42.087Z,48.30
2019-06-07T20:36:47.778Z,48.80
2019-06-07T20:40:50.626Z,48.80
2019-06-07T20:44:53.536Z,49.00
2019-06-07T20:48:56.429Z,48.90
2019-06-07T20:53:01.176Z,49.30
2019-06-07T20:57:04.781Z,49.40
2019-06-07T21:01:08.916Z,49.40
2019-06-07T21:05:12.259Z,49.80
2019-06-07T21:09:18.179Z,50.50
2019-06-07T21:13:21.074Z,50.80
2019-06-07T21:17:23.950Z,51.60
2019-06-07T21:21:26.876Z,53.10
2019-06-07T21:25:29.726Z,54.50
2019-06-07T21:29:32.620Z,54.50
2019-06-07T21:33:35.550Z,57.00
2019-06-07T21:37:38.441Z,58.80
2019-06-07T21:41:41.369Z,61.10
2019-06-07T21:45:44.240Z,64.10
2019-06-07T21:49:50.207Z,74.30
2019-06-07T21:53:56.216Z,78.20
2019-06-07T21:57:59.122Z,75.30
2019-06-07T22:02:05.413Z,78.70
2019-06-07T22:06:09.577Z,80.30
2019-06-07T22:10:12.860Z,85.90
2019-06-07T22:14:18.840Z,90.80
2019-06-07T22:18:21.776Z,91.40
2019-06-07T22:22:30.830Z,93.90
2019-06-07T22:26:33.759Z,91.30
2019-06-07T22:30:36.625Z,89.10
2019-06-07T22:34:39.460Z,91.10
2019-06-07T22:38:45.559Z,91.20
2019-06-07T22:42:48.618Z,90.00
2019-06-07T22:46:51.501Z,91.40
2019-06-07T22:50:54.435Z,91.60
2019-06-07T22:54:57.394Z,91.20
2019-06-07T22:59:00.292Z,90.90
2019-06-07T23:03:04.074Z,89.10
2019-06-07T23:07:06.970Z,91.70
2019-06-07T23:11:11.094Z,92.00
2019-06-07T23:15:15.193Z,92.30
2019-06-07T23:19:18.417Z,92.80
2019-06-07T23:23:21.276Z,91.90
2019-06-07T23:27:24.167Z,95.10
2019-06-07T23:31:27.053Z,91.50
2019-06-07T23:35:29.956Z,92.20
2019-06-07T23:39:37.461Z,93.00
2019-06-07T23:43:40.401Z,96.20
2019-06-07T23:47:43.257Z,91.60
2019-06-07T23:51:46.196Z,93.60
2019-06-07T23:55:49.131Z,90.40
2019-06-07T23:59:52.106Z,91.60
